createdAt,value
2019-01-06T00:00:01.275Z,0.00
2019-01-06T00:01:01.281Z,0.00
2019-01-06T00:02:01.290Z,0.00
2019-01-06T00:03:01.310Z,0.00
2019-01-06T00:04:01.325Z,0.00
2019-01-06T00:05:01.341Z,0.00
2019-01-06T00:06:01.363Z,0.00
2019-01-06T00:07:01.384Z,0.00
2019-01-06T00:08:01.397Z,0.00
2019-01-06T00:09:01.415Z,0.00
2019-01-06T00:10:01.482Z,0.00
2019-01-06T00:11:01.451Z,0.00
2019-01-06T00:12:02.942Z,0.00
2019-01-06T00:13:01.487Z,0.00
2019-01-06T00:14:01.505Z,0.00
2019-01-06T00:15:01.534Z,0.00
2019-01-06T00:16:01.540Z,0.00
2019-01-06T00:17:01.559Z,0.00
2019-01-06T00:18:01.568Z,0.00
2019-01-06T00:19:01.589Z,0.00
2019-01-06T00:20:01.607Z,0.00
2019-01-06T00:21:01.632Z,0.00
2019-01-06T00:22:01.649Z,0.00
2019-01-06T00:23:01.663Z,0.00
2019-01-06T00:24:01.684Z,0.00
2019-01-06T00:25:01.710Z,0.00
2019-01-06T00:26:01.723Z,0.00
2019-01-06T00:27:01.732Z,0.00
2019-01-06T00:28:01.764Z,0.00
2019-01-06T00:29:01.773Z,0.00
2019-01-06T00:30:03.125Z,0.00
2019-01-06T00:31:01.802Z,0.00
2019-01-06T00:32:01.892Z,0.00
2019-01-06T00:33:01.845Z,0.00
2019-01-06T00:34:01.859Z,0.00
2019-01-06T00:35:01.875Z,0.00
2019-01-06T00:36:01.922Z,0.00
2019-01-06T00:37:01.910Z,0.00
2019-01-06T00:38:01.923Z,0.00
2019-01-06T00:39:01.942Z,0.00
2019-01-06T00:40:01.979Z,0.00
2019-01-06T00:41:01.976Z,0.00
2019-01-06T00:42:01.992Z,0.00
2019-01-06T00:43:02.010Z,0.00
2019-01-06T00:44:02.035Z,0.00
2019-01-06T00:45:02.049Z,0.00
2019-01-06T00:46:02.072Z,0.00
2019-01-06T00:47:02.086Z,0.00
2019-01-06T00:48:02.098Z,0.00
2019-01-06T00:49:02.118Z,0.00
2019-01-06T00:50:02.189Z,0.00
2019-01-06T00:51:02.153Z,0.00
2019-01-06T00:52:02.167Z,0.00
2019-01-06T00:53:02.186Z,0.00
2019-01-06T00:54:02.203Z,0.00
2019-01-06T00:55:02.221Z,0.00
2019-01-06T00:56:02.283Z,0.00
2019-01-06T00:57:02.255Z,0.00
2019-01-06T00:58:02.276Z,0.00
2019-01-06T00:59:02.297Z,0.00
2019-01-06T01:00:02.333Z,0.00
2019-01-06T01:01:02.339Z,0.00
2019-01-06T01:02:02.360Z,0.00
2019-01-06T01:03:02.359Z,0.00
2019-01-06T01:04:02.445Z,0.00
2019-01-06T01:05:02.406Z,0.00
2019-01-06T01:06:02.423Z,0.00
2019-01-06T01:07:02.442Z,0.00
2019-01-06T01:08:02.455Z,0.00
2019-01-06T01:09:02.482Z,0.00
2019-01-06T01:10:02.489Z,0.00
2019-01-06T01:11:02.503Z,0.00
2019-01-06T01:12:02.523Z,0.00
2019-01-06T01:13:02.543Z,0.00
2019-01-06T01:14:02.557Z,0.00
2019-01-06T01:15:02.580Z,0.00
2019-01-06T01:16:02.608Z,0.00
2019-01-06T01:17:02.610Z,0.00
2019-01-06T01:18:02.633Z,0.00
2019-01-06T01:19:02.642Z,0.00
2019-01-06T01:20:02.660Z,0.00
2019-01-06T01:21:02.684Z,0.00
2019-01-06T01:22:02.698Z,0.00
2019-01-06T01:23:02.714Z,0.00
2019-01-06T01:24:02.732Z,0.00
2019-01-06T01:25:02.746Z,0.00
2019-01-06T01:26:02.781Z,0.00
2019-01-06T01:27:02.792Z,0.00
2019-01-06T01:28:02.805Z,0.00
2019-01-06T01:29:02.816Z,0.00
2019-01-06T01:30:02.833Z,0.00
2019-01-06T01:31:02.863Z,0.00
2019-01-06T01:32:02.871Z,0.00
2019-01-06T01:33:02.883Z,0.00
2019-01-06T01:34:02.911Z,0.00
2019-01-06T01:35:02.925Z,0.00
2019-01-06T01:36:02.936Z,0.00
2019-01-06T01:37:02.986Z,0.00
2019-01-06T01:38:02.977Z,0.00
2019-01-06T01:39:02.989Z,0.00
2019-01-06T01:40:03.004Z,0.00
2019-01-06T01:41:03.025Z,0.00
2019-01-06T01:42:03.050Z,0.00
2019-01-06T01:43:03.066Z,0.00
2019-01-06T01:44:03.075Z,0.00
2019-01-06T01:45:03.112Z,0.00
2019-01-06T01:46:03.114Z,0.00
2019-01-06T01:47:03.145Z,0.00
2019-01-06T01:48:03.158Z,0.00
2019-01-06T01:49:03.161Z,0.00
2019-01-06T01:50:03.188Z,0.00
2019-01-06T01:51:03.197Z,0.00
2019-01-06T01:52:03.220Z,0.00
2019-01-06T01:53:03.241Z,0.00
2019-01-06T01:54:03.276Z,0.00
2019-01-06T01:55:03.271Z,0.00
2019-01-06T01:56:03.341Z,0.00
2019-01-06T01:57:03.308Z,0.00
2019-01-06T01:58:03.320Z,0.00
2019-01-06T01:59:03.348Z,0.00
2019-01-06T02:00:03.360Z,0.00
2019-01-06T02:01:03.373Z,0.00
2019-01-06T02:02:03.396Z,0.00
2019-01-06T02:03:03.424Z,0.00
2019-01-06T02:04:03.443Z,0.00
2019-01-06T02:05:03.442Z,0.00
2019-01-06T02:06:03.462Z,0.00
2019-01-06T02:07:03.483Z,0.00
2019-01-06T02:08:03.497Z,0.00
2019-01-06T02:09:03.526Z,0.00
2019-01-06T02:10:03.534Z,0.00
2019-01-06T02:11:03.562Z,0.00
2019-01-06T02:12:03.593Z,0.00
2019-01-06T02:13:03.586Z,0.00
2019-01-06T02:14:03.606Z,0.00
2019-01-06T02:15:03.622Z,0.00
2019-01-06T02:16:03.637Z,0.00
2019-01-06T02:17:03.687Z,0.00
2019-01-06T02:18:03.677Z,0.00
2019-01-06T02:19:03.694Z,0.00
2019-01-06T02:20:03.714Z,0.00
2019-01-06T02:21:03.732Z,0.00
2019-01-06T02:22:03.748Z,0.00
2019-01-06T02:23:03.773Z,0.00
2019-01-06T02:24:03.786Z,0.00
2019-01-06T02:25:03.819Z,0.00
2019-01-06T02:26:03.816Z,0.00
2019-01-06T02:27:05.546Z,0.00
2019-01-06T02:28:03.861Z,0.00
2019-01-06T02:29:03.902Z,0.00
2019-01-06T02:30:03.900Z,0.00
2019-01-06T02:31:03.927Z,0.00
2019-01-06T02:32:03.922Z,0.00
2019-01-06T02:33:03.965Z,0.00
2019-01-06T02:34:03.967Z,0.00
2019-01-06T02:35:03.998Z,0.00
2019-01-06T02:36:03.989Z,0.00
2019-01-06T02:37:04.015Z,0.00
2019-01-06T02:38:04.024Z,0.00
2019-01-06T02:39:04.042Z,0.00
2019-01-06T02:40:04.069Z,0.00
2019-01-06T02:41:04.080Z,0.00
2019-01-06T02:42:04.102Z,0.00
2019-01-06T02:43:04.127Z,0.00
2019-01-06T02:44:04.137Z,0.00
2019-01-06T02:45:04.158Z,0.00
2019-01-06T02:46:04.171Z,0.00
2019-01-06T02:47:04.199Z,0.00
2019-01-06T02:48:04.220Z,0.00
2019-01-06T02:49:04.222Z,0.00
2019-01-06T02:50:04.245Z,0.00
2019-01-06T02:51:04.265Z,0.00
2019-01-06T02:52:04.279Z,0.00
2019-01-06T02:53:04.301Z,0.00
2019-01-06T02:54:04.312Z,0.00
2019-01-06T02:55:04.326Z,0.00
2019-01-06T02:56:04.343Z,0.00
2019-01-06T02:57:04.377Z,0.00
2019-01-06T02:58:04.386Z,0.00
2019-01-06T02:59:04.402Z,0.00
2019-01-06T03:00:04.413Z,0.00
2019-01-06T03:01:04.434Z,0.00
2019-01-06T03:02:04.448Z,0.00
2019-01-06T03:03:04.469Z,0.00
2019-01-06T03:04:04.480Z,0.00
2019-01-06T03:05:04.496Z,0.00
2019-01-06T03:06:04.524Z,0.00
2019-01-06T03:07:04.534Z,0.00
2019-01-06T03:08:04.552Z,0.00
2019-01-06T03:09:04.574Z,0.00
2019-01-06T03:10:04.586Z,0.00
2019-01-06T03:11:04.605Z,0.00
2019-01-06T03:12:04.635Z,0.00
2019-01-06T03:13:04.658Z,0.00
2019-01-06T03:14:04.662Z,0.00
2019-01-06T03:15:04.682Z,0.00
2019-01-06T03:16:04.692Z,0.00
2019-01-06T03:17:04.711Z,0.00
2019-01-06T03:18:04.734Z,0.00
2019-01-06T03:19:04.748Z,0.00
2019-01-06T03:20:04.770Z,0.00
2019-01-06T03:21:04.789Z,0.00
2019-01-06T03:22:04.811Z,0.00
2019-01-06T03:23:04.816Z,0.00
2019-01-06T03:24:04.851Z,0.00
2019-01-06T03:25:04.859Z,0.00
2019-01-06T03:26:04.870Z,0.00
2019-01-06T03:27:04.891Z,0.00
2019-01-06T03:28:04.908Z,0.00
2019-01-06T03:29:04.928Z,0.00
2019-01-06T03:30:04.948Z,0.00
2019-01-06T03:31:04.956Z,0.00
2019-01-06T03:32:04.979Z,0.00
2019-01-06T03:33:05.001Z,0.00
2019-01-06T03:34:05.031Z,0.00
2019-01-06T03:35:05.038Z,0.00
2019-01-06T03:36:05.051Z,0.00
2019-01-06T03:37:05.066Z,0.00
2019-01-06T03:38:05.079Z,0.00
2019-01-06T03:39:05.095Z,0.00
2019-01-06T03:40:05.127Z,0.00
2019-01-06T03:41:05.133Z,0.00
2019-01-06T03:42:05.154Z,0.00
2019-01-06T03:43:05.210Z,0.00
2019-01-06T03:44:05.195Z,0.00
2019-01-06T03:45:05.204Z,0.00
2019-01-06T03:46:05.221Z,0.00
2019-01-06T03:47:05.237Z,0.00
2019-01-06T03:48:05.254Z,0.00
2019-01-06T03:49:05.271Z,0.00
2019-01-06T03:50:05.290Z,0.00
2019-01-06T03:51:05.305Z,0.00
2019-01-06T03:52:05.342Z,0.00
2019-01-06T03:53:05.360Z,0.00
2019-01-06T03:54:05.364Z,0.00
2019-01-06T03:55:05.527Z,0.00
2019-01-06T03:56:05.396Z,0.00
2019-01-06T03:57:05.415Z,0.00
2019-01-06T03:58:05.443Z,0.00
2019-01-06T03:59:05.451Z,0.00
2019-01-06T04:00:05.476Z,0.00
2019-01-06T04:01:05.495Z,0.00
2019-01-06T04:02:05.512Z,0.00
2019-01-06T04:03:05.517Z,0.00
2019-01-06T04:04:05.545Z,0.00
2019-01-06T04:05:05.555Z,0.00
2019-01-06T04:06:05.574Z,0.00
2019-01-06T04:07:05.588Z,0.00
2019-01-06T04:08:05.603Z,0.00
2019-01-06T04:09:05.628Z,0.00
2019-01-06T04:10:05.648Z,0.00
2019-01-06T04:11:14.673Z,0.00
2019-01-06T04:12:05.677Z,0.00
2019-01-06T04:13:05.698Z,0.00
2019-01-06T04:14:05.726Z,0.00
2019-01-06T04:15:05.743Z,0.00
2019-01-06T04:16:05.754Z,0.00
2019-01-06T04:17:05.763Z,0.00
2019-01-06T04:18:05.787Z,0.00
2019-01-06T04:19:05.848Z,0.00
2019-01-06T04:20:05.857Z,0.00
2019-01-06T04:21:05.835Z,0.00
2019-01-06T04:22:05.852Z,0.00
2019-01-06T04:23:05.873Z,0.00
2019-01-06T04:24:05.886Z,0.00
2019-01-06T04:25:05.906Z,0.00
2019-01-06T04:26:05.928Z,0.00
2019-01-06T04:27:05.941Z,0.00
2019-01-06T04:28:05.960Z,0.00
2019-01-06T04:29:05.980Z,0.00
2019-01-06T04:30:05.990Z,0.00
2019-01-06T04:31:06.012Z,0.00
2019-01-06T04:32:06.023Z,0.00
2019-01-06T04:33:06.049Z,0.00
2019-01-06T04:34:06.067Z,0.00
2019-01-06T04:35:06.110Z,0.00
2019-01-06T04:36:06.097Z,0.00
2019-01-06T04:37:06.122Z,0.00
2019-01-06T04:38:06.140Z,0.00
2019-01-06T04:39:06.152Z,0.00
2019-01-06T04:40:06.190Z,0.00
2019-01-06T04:41:06.208Z,0.00
2019-01-06T04:42:06.219Z,0.00
2019-01-06T04:43:06.221Z,0.00
2019-01-06T04:44:06.243Z,0.00
2019-01-06T04:45:06.259Z,0.00
2019-01-06T04:46:06.280Z,0.00
2019-01-06T04:47:06.292Z,0.00
2019-01-06T04:48:06.317Z,0.00
2019-01-06T04:49:06.347Z,0.00
2019-01-06T04:50:06.346Z,0.00
2019-01-06T04:51:06.358Z,0.00
2019-01-06T04:52:06.392Z,0.00
2019-01-06T04:53:06.410Z,0.00
2019-01-06T04:54:06.411Z,0.00
2019-01-06T04:55:06.430Z,0.00
2019-01-06T04:56:06.450Z,0.00
2019-01-06T04:57:06.470Z,0.00
2019-01-06T04:58:06.491Z,0.00
2019-01-06T04:59:06.509Z,0.00
2019-01-06T05:00:06.532Z,0.00
2019-01-06T05:01:06.539Z,0.00
2019-01-06T05:02:06.571Z,0.00
2019-01-06T05:03:06.571Z,0.00
2019-01-06T05:04:06.594Z,0.00
2019-01-06T05:05:06.610Z,0.00
2019-01-06T05:06:06.631Z,0.00
2019-01-06T05:07:06.660Z,0.00
2019-01-06T05:08:06.666Z,0.00
2019-01-06T05:09:06.681Z,0.00
2019-01-06T05:10:06.704Z,0.00
2019-01-06T05:11:06.740Z,0.00
2019-01-06T05:12:06.733Z,0.00
2019-01-06T05:13:06.755Z,0.00
2019-01-06T05:14:06.798Z,0.00
2019-01-06T05:15:06.783Z,0.00
2019-01-06T05:16:06.822Z,0.00
2019-01-06T05:17:06.821Z,0.00
2019-01-06T05:18:06.843Z,0.00
2019-01-06T05:19:06.882Z,0.00
2019-01-06T05:20:06.893Z,0.00
2019-01-06T05:21:06.907Z,0.00
2019-01-06T05:22:06.915Z,0.00
2019-01-06T05:23:06.928Z,0.00
2019-01-06T05:24:06.948Z,0.00
2019-01-06T05:25:06.962Z,0.00
2019-01-06T05:26:06.989Z,0.00
2019-01-06T05:27:07.004Z,0.00
2019-01-06T05:28:07.016Z,0.00
2019-01-06T05:29:07.034Z,0.00
2019-01-06T05:30:07.079Z,0.00
2019-01-06T05:31:07.072Z,0.00
2019-01-06T05:32:07.105Z,0.00
2019-01-06T05:33:07.113Z,0.00
2019-01-06T05:34:07.127Z,0.00
2019-01-06T05:35:07.139Z,0.00
2019-01-06T05:36:07.161Z,0.00
2019-01-06T05:37:07.170Z,0.00
2019-01-06T05:38:07.200Z,0.00
2019-01-06T05:39:07.226Z,0.00
2019-01-06T05:40:07.225Z,0.00
2019-01-06T05:41:07.251Z,0.00
2019-01-06T05:42:07.274Z,0.00
2019-01-06T05:43:07.280Z,0.00
2019-01-06T05:44:07.395Z,0.00
2019-01-06T05:45:07.313Z,0.00
2019-01-06T05:46:07.342Z,0.00
2019-01-06T05:47:07.351Z,0.00
2019-01-06T05:48:07.373Z,0.00
2019-01-06T05:49:07.387Z,0.00
2019-01-06T05:50:07.410Z,0.00
2019-01-06T05:51:07.439Z,0.00
2019-01-06T05:52:07.436Z,0.00
2019-01-06T05:53:07.452Z,0.00
2019-01-06T05:54:07.473Z,0.00
2019-01-06T05:55:07.489Z,0.00
2019-01-06T05:56:07.506Z,0.00
2019-01-06T05:57:07.524Z,0.00
2019-01-06T05:58:07.606Z,0.00
2019-01-06T05:59:07.572Z,0.00
2019-01-06T06:00:07.590Z,0.00
2019-01-06T06:01:07.592Z,0.00
2019-01-06T06:02:07.630Z,0.00
2019-01-06T06:03:07.629Z,0.00
2019-01-06T06:04:07.654Z,0.00
2019-01-06T06:05:07.708Z,0.00
2019-01-06T06:06:07.685Z,0.00
2019-01-06T06:07:11.443Z,0.00
2019-01-06T06:08:07.731Z,0.00
2019-01-06T06:09:07.740Z,0.00
2019-01-06T06:10:07.752Z,0.00
2019-01-06T06:11:07.774Z,0.00
2019-01-06T06:12:07.791Z,0.00
2019-01-06T06:13:07.808Z,0.00
2019-01-06T06:14:07.860Z,0.00
2019-01-06T06:15:07.898Z,0.00
2019-01-06T06:16:07.857Z,0.00
2019-01-06T06:17:07.881Z,0.00
2019-01-06T06:18:07.899Z,0.00
2019-01-06T06:19:07.922Z,0.00
2019-01-06T06:20:07.935Z,0.00
2019-01-06T06:21:07.960Z,0.00
2019-01-06T06:22:07.970Z,0.00
2019-01-06T06:23:07.986Z,0.00
2019-01-06T06:24:08.013Z,0.00
2019-01-06T06:25:08.034Z,0.00
2019-01-06T06:26:08.040Z,0.00
2019-01-06T06:27:08.056Z,0.00
2019-01-06T06:28:08.071Z,0.00
2019-01-06T06:29:08.113Z,0.00
2019-01-06T06:30:08.116Z,0.00
2019-01-06T06:31:08.135Z,0.00
2019-01-06T06:32:08.147Z,0.00
2019-01-06T06:33:08.160Z,0.00
2019-01-06T06:34:08.225Z,0.00
2019-01-06T06:35:08.195Z,0.00
2019-01-06T06:36:08.213Z,0.00
2019-01-06T06:37:08.228Z,0.00
2019-01-06T06:38:08.270Z,0.00
2019-01-06T06:39:08.269Z,0.00
2019-01-06T06:40:08.282Z,0.00
2019-01-06T06:41:08.299Z,0.00
2019-01-06T06:42:08.316Z,0.00
2019-01-06T06:43:08.346Z,0.00
2019-01-06T06:44:08.389Z,0.00
2019-01-06T06:45:08.391Z,0.00
2019-01-06T06:46:08.388Z,0.00
2019-01-06T06:47:08.407Z,0.00
2019-01-06T06:48:08.422Z,0.00
2019-01-06T06:49:08.500Z,0.00
2019-01-06T06:50:08.466Z,0.00
2019-01-06T06:51:08.482Z,4.00
2019-01-06T06:52:08.530Z,4.00
2019-01-06T06:53:08.520Z,4.00
2019-01-06T06:54:08.546Z,0.00
2019-01-06T06:55:08.544Z,0.00
2019-01-06T06:56:08.576Z,4.00
2019-01-06T06:57:08.588Z,4.00
2019-01-06T06:58:08.639Z,4.00
2019-01-06T06:59:08.630Z,0.00
2019-01-06T07:00:08.639Z,4.00
2019-01-06T07:01:08.653Z,4.00
2019-01-06T07:02:08.683Z,4.00
2019-01-06T07:03:08.696Z,4.00
2019-01-06T07:04:08.708Z,8.00
2019-01-06T07:05:08.755Z,4.00
2019-01-06T07:06:08.755Z,12.00
2019-01-06T07:07:08.758Z,8.00
2019-01-06T07:08:08.773Z,8.00
2019-01-06T07:09:08.793Z,12.00
2019-01-06T07:10:08.864Z,12.00
2019-01-06T07:11:08.826Z,16.00
2019-01-06T07:12:08.841Z,16.00
2019-01-06T07:13:08.868Z,16.00
2019-01-06T07:14:08.877Z,16.00
2019-01-06T07:15:08.895Z,20.00
2019-01-06T07:16:08.910Z,20.00
2019-01-06T07:17:08.947Z,20.00
2019-01-06T07:18:08.968Z,24.00
2019-01-06T07:19:08.962Z,28.00
2019-01-06T07:20:09.017Z,28.00
2019-01-06T07:21:09.001Z,32.00
2019-01-06T07:22:09.043Z,36.00
2019-01-06T07:23:09.040Z,40.00
2019-01-06T07:24:09.053Z,40.00
2019-01-06T07:25:09.075Z,40.00
2019-01-06T07:26:09.092Z,44.00
2019-01-06T07:27:09.109Z,44.00
2019-01-06T07:28:09.137Z,48.00
2019-01-06T07:29:09.175Z,56.00
2019-01-06T07:30:09.160Z,56.00
2019-01-06T07:31:09.177Z,64.00
2019-01-06T07:32:09.201Z,72.00
2019-01-06T07:33:09.209Z,76.00
2019-01-06T07:34:09.248Z,84.00
2019-01-06T07:35:09.257Z,100.00
2019-01-06T07:36:09.270Z,116.00
2019-01-06T07:37:09.292Z,124.00
2019-01-06T07:38:09.327Z,132.00
2019-01-06T07:39:09.329Z,144.00
2019-01-06T07:40:09.339Z,160.00
2019-01-06T07:41:09.362Z,176.00
2019-01-06T07:42:09.369Z,192.00
2019-01-06T07:43:09.402Z,208.00
2019-01-06T07:44:09.437Z,212.00
2019-01-06T07:45:09.420Z,216.00
2019-01-06T07:46:09.445Z,216.00
2019-01-06T07:47:09.483Z,220.00
2019-01-06T07:48:09.473Z,236.00
2019-01-06T07:49:09.498Z,268.00
2019-01-06T07:50:09.538Z,292.00
2019-01-06T07:51:09.543Z,332.00
2019-01-06T07:52:09.544Z,364.00
2019-01-06T07:53:09.565Z,380.00
2019-01-06T07:54:09.586Z,392.00
2019-01-06T07:55:09.643Z,400.00
2019-01-06T07:56:09.635Z,400.00
2019-01-06T07:57:09.634Z,416.00
2019-01-06T07:58:09.652Z,488.00
2019-01-06T07:59:09.694Z,476.00
2019-01-06T08:00:15.137Z,444.00
2019-01-06T08:01:09.713Z,484.00
2019-01-06T08:02:09.734Z,492.00
2019-01-06T08:03:09.758Z,500.00
2019-01-06T08:04:09.790Z,512.00
2019-01-06T08:05:09.794Z,504.00
2019-01-06T08:06:09.796Z,496.00
2019-01-06T08:07:09.818Z,476.00
2019-01-06T08:08:09.844Z,484.00
2019-01-06T08:09:09.858Z,516.00
2019-01-06T08:10:09.932Z,556.00
2019-01-06T08:11:09.889Z,612.00
2019-01-06T08:12:09.904Z,644.00
2019-01-06T08:13:09.937Z,608.00
2019-01-06T08:14:09.947Z,600.00
2019-01-06T08:15:09.964Z,680.00
2019-01-06T08:16:09.975Z,692.00
2019-01-06T08:17:10.006Z,688.00
2019-01-06T08:18:10.050Z,680.00
2019-01-06T08:19:10.040Z,636.00
2019-01-06T08:20:10.054Z,700.00
2019-01-06T08:21:10.098Z,788.00
2019-01-06T08:22:10.114Z,952.00
2019-01-06T08:23:10.114Z,1084.00
2019-01-06T08:24:10.123Z,1284.00
2019-01-06T08:25:10.127Z,1444.00
2019-01-06T08:26:10.149Z,1444.00
2019-01-06T08:27:10.163Z,1360.00
2019-01-06T08:28:10.185Z,1604.00
2019-01-06T08:29:10.203Z,1736.00
2019-01-06T08:30:10.214Z,1736.00
2019-01-06T08:31:10.247Z,1852.00
2019-01-06T08:32:10.295Z,1896.00
2019-01-06T08:33:10.283Z,1864.00
2019-01-06T08:34:10.293Z,1712.00
2019-01-06T08:35:10.306Z,1536.00
2019-01-06T08:36:10.333Z,1432.00
2019-01-06T08:37:10.349Z,1396.00
2019-01-06T08:38:10.360Z,1352.00
2019-01-06T08:39:10.387Z,1280.00
2019-01-06T08:40:10.407Z,1312.00
2019-01-06T08:41:10.424Z,1408.00
2019-01-06T08:42:10.450Z,1420.00
2019-01-06T08:43:10.471Z,1320.00
2019-01-06T08:44:10.474Z,1284.00
2019-01-06T08:45:10.486Z,1380.00
2019-01-06T08:46:10.507Z,1596.00
2019-01-06T08:47:10.531Z,1792.00
2019-01-06T08:48:10.547Z,1892.00
2019-01-06T08:49:10.558Z,2020.00
2019-01-06T08:50:10.571Z,2144.00
2019-01-06T08:51:10.605Z,2132.00
2019-01-06T08:52:10.610Z,2152.00
2019-01-06T08:53:10.641Z,2048.00
2019-01-06T08:54:10.694Z,2060.00
2019-01-06T08:55:10.667Z,2000.00
2019-01-06T08:56:10.748Z,1844.00
2019-01-06T08:57:10.699Z,1720.00
2019-01-06T08:58:10.720Z,1716.00
2019-01-06T08:59:10.730Z,1716.00
2019-01-06T09:00:10.751Z,1716.00
2019-01-06T09:01:10.765Z,1836.00
2019-01-06T09:02:10.799Z,2264.00
2019-01-06T09:03:10.808Z,2528.00
2019-01-06T09:04:10.844Z,2532.00
2019-01-06T09:05:10.859Z,2600.00
2019-01-06T09:06:10.863Z,2632.00
2019-01-06T09:07:10.896Z,2644.00
2019-01-06T09:08:10.897Z,2696.00
2019-01-06T09:09:10.911Z,2748.00
2019-01-06T09:10:10.927Z,2724.00
2019-01-06T09:11:10.964Z,2700.00
2019-01-06T09:12:10.967Z,2836.00
2019-01-06T09:13:10.986Z,2900.00
2019-01-06T09:14:10.999Z,2784.00
2019-01-06T09:15:11.033Z,2752.00
2019-01-06T09:16:11.044Z,2724.00
2019-01-06T09:17:11.067Z,2728.00
2019-01-06T09:18:11.103Z,2664.00
2019-01-06T09:19:11.151Z,2444.00
2019-01-06T09:20:11.125Z,2372.00
2019-01-06T09:21:11.175Z,2388.00
2019-01-06T09:22:11.146Z,2512.00
2019-01-06T09:23:11.162Z,2292.00
2019-01-06T09:24:11.222Z,2112.00
2019-01-06T09:25:11.214Z,2028.00
2019-01-06T09:26:11.222Z,2080.00
2019-01-06T09:27:11.267Z,2240.00
2019-01-06T09:28:11.270Z,2320.00
2019-01-06T09:29:11.280Z,2316.00
2019-01-06T09:30:11.300Z,2344.00
2019-01-06T09:31:11.309Z,2200.00
2019-01-06T09:32:11.344Z,2076.00
2019-01-06T09:33:11.342Z,2056.00
2019-01-06T09:34:11.378Z,2120.00
2019-01-06T09:35:11.740Z,2204.00
2019-01-06T09:36:11.404Z,2368.00
2019-01-06T09:37:11.432Z,2376.00
2019-01-06T09:38:11.457Z,2240.00
2019-01-06T09:39:11.465Z,2104.00
2019-01-06T09:40:11.481Z,2004.00
2019-01-06T09:41:11.504Z,1976.00
2019-01-06T09:42:11.521Z,2000.00
2019-01-06T09:43:11.521Z,1936.00
2019-01-06T09:44:11.558Z,1940.00
2019-01-06T09:45:11.574Z,2072.00
2019-01-06T09:46:11.580Z,2328.00
2019-01-06T09:47:11.606Z,2524.00
2019-01-06T09:48:11.617Z,2628.00
2019-01-06T09:49:11.638Z,2760.00
2019-01-06T09:50:11.654Z,2644.00
2019-01-06T09:51:11.675Z,2400.00
2019-01-06T09:52:11.689Z,2284.00
2019-01-06T09:53:11.715Z,2344.00
2019-01-06T09:54:11.763Z,2236.00
2019-01-06T09:55:11.750Z,2084.00
2019-01-06T09:56:11.761Z,2124.00
2019-01-06T09:57:12.152Z,2252.00
2019-01-06T09:58:11.832Z,2276.00
2019-01-06T09:59:11.849Z,2324.00
2019-01-06T10:00:11.843Z,2496.00
2019-01-06T10:01:11.851Z,2664.00
2019-01-06T10:02:11.884Z,2696.00
2019-01-06T10:03:11.891Z,2780.00
2019-01-06T10:04:11.922Z,2828.00
2019-01-06T10:05:11.927Z,2748.00
2019-01-06T10:06:11.940Z,2684.00
2019-01-06T10:07:11.959Z,2752.00
2019-01-06T10:08:11.974Z,2848.00
2019-01-06T10:09:11.998Z,2860.00
2019-01-06T10:10:12.024Z,2812.00
2019-01-06T10:11:12.035Z,2804.00
2019-01-06T10:12:12.052Z,2776.00
2019-01-06T10:13:12.065Z,2756.00
2019-01-06T10:14:12.090Z,2788.00
2019-01-06T10:15:12.106Z,2756.00
2019-01-06T10:16:12.127Z,2660.00
2019-01-06T10:17:12.141Z,2580.00
2019-01-06T10:18:12.160Z,2584.00
2019-01-06T10:19:12.178Z,2740.00
2019-01-06T10:20:12.216Z,2900.00
2019-01-06T10:21:12.211Z,3008.00
2019-01-06T10:22:12.237Z,3012.00
2019-01-06T10:23:12.249Z,2924.00
2019-01-06T10:24:12.275Z,2856.00
2019-01-06T10:25:12.284Z,2756.00
2019-01-06T10:26:12.310Z,2660.00
2019-01-06T10:27:12.333Z,2640.00
2019-01-06T10:28:12.351Z,2760.00
2019-01-06T10:29:12.363Z,2880.00
2019-01-06T10:30:13.381Z,2928.00
2019-01-06T10:31:12.390Z,3036.00
2019-01-06T10:32:12.415Z,3096.00
2019-01-06T10:33:12.428Z,3128.00
2019-01-06T10:34:12.465Z,3144.00
2019-01-06T10:35:12.471Z,3072.00
2019-01-06T10:36:12.482Z,3060.00
2019-01-06T10:37:12.528Z,3112.00
2019-01-06T10:38:12.517Z,3152.00
2019-01-06T10:39:12.548Z,3252.00
2019-01-06T10:40:12.559Z,3224.00
2019-01-06T10:41:12.582Z,3100.00
2019-01-06T10:42:12.611Z,3180.00
2019-01-06T10:43:12.612Z,3184.00
2019-01-06T10:44:12.625Z,3204.00
2019-01-06T10:45:12.643Z,3500.00
2019-01-06T10:46:12.671Z,3728.00
2019-01-06T10:47:12.696Z,3892.00
2019-01-06T10:48:12.709Z,4148.00
2019-01-06T10:49:12.717Z,4452.00
2019-01-06T10:50:12.735Z,4788.00
2019-01-06T10:51:12.769Z,4996.00
2019-01-06T10:52:12.783Z,4996.00
2019-01-06T10:53:12.792Z,4996.00
2019-01-06T10:54:12.854Z,5016.00
2019-01-06T10:55:12.823Z,4972.00
2019-01-06T10:56:12.860Z,4976.00
2019-01-06T10:57:12.867Z,4940.00
2019-01-06T10:58:12.877Z,4924.00
2019-01-06T10:59:12.908Z,4828.00
2019-01-06T11:00:12.915Z,4736.00
2019-01-06T11:01:12.937Z,4672.00
2019-01-06T11:02:12.953Z,4712.00
2019-01-06T11:03:13.005Z,4736.00
2019-01-06T11:04:12.987Z,4768.00
2019-01-06T11:05:13.003Z,4892.00
2019-01-06T11:06:13.043Z,5064.00
2019-01-06T11:07:13.044Z,5120.00
2019-01-06T11:08:13.067Z,4940.00
2019-01-06T11:09:13.082Z,4660.00
2019-01-06T11:10:13.097Z,4584.00
2019-01-06T11:11:13.120Z,4716.00
2019-01-06T11:12:13.139Z,4700.00
2019-01-06T11:13:13.165Z,4896.00
2019-01-06T11:14:13.180Z,5128.00
2019-01-06T11:15:13.197Z,5308.00
2019-01-06T11:16:13.214Z,5292.00
2019-01-06T11:17:13.238Z,5256.00
2019-01-06T11:18:13.252Z,5148.00
2019-01-06T11:19:13.275Z,4744.00
2019-01-06T11:20:13.287Z,4224.00
2019-01-06T11:21:13.319Z,4036.00
2019-01-06T11:22:13.323Z,3644.00
2019-01-06T11:23:13.346Z,3172.00
2019-01-06T11:24:13.363Z,2928.00
2019-01-06T11:25:13.381Z,3088.00
2019-01-06T11:26:13.414Z,3380.00
2019-01-06T11:27:13.435Z,3576.00
2019-01-06T11:28:13.433Z,3692.00
2019-01-06T11:29:13.485Z,3484.00
2019-01-06T11:30:13.475Z,3164.00
2019-01-06T11:31:13.498Z,3136.00
2019-01-06T11:32:13.502Z,3116.00
2019-01-06T11:33:13.524Z,3024.00
2019-01-06T11:34:13.555Z,3060.00
2019-01-06T11:35:13.556Z,3132.00
2019-01-06T11:36:13.582Z,3180.00
2019-01-06T11:37:13.605Z,3128.00
2019-01-06T11:38:13.618Z,3212.00
2019-01-06T11:39:13.639Z,3376.00
2019-01-06T11:40:13.670Z,3392.00
2019-01-06T11:41:13.681Z,3272.00
2019-01-06T11:42:13.689Z,3116.00
2019-01-06T11:43:13.706Z,3128.00
2019-01-06T11:44:14.141Z,3216.00
2019-01-06T11:45:13.738Z,3104.00
2019-01-06T11:46:13.757Z,3164.00
2019-01-06T11:47:13.776Z,3180.00
2019-01-06T11:48:13.795Z,3092.00
2019-01-06T11:49:13.816Z,2872.00
2019-01-06T11:50:13.839Z,2532.00
2019-01-06T11:51:13.858Z,2400.00
2019-01-06T11:52:13.888Z,2360.00
2019-01-06T11:53:13.888Z,2352.00
2019-01-06T11:54:13.907Z,2292.00
2019-01-06T11:55:13.935Z,2168.00
2019-01-06T11:56:13.944Z,2056.00
2019-01-06T11:57:13.970Z,2012.00
2019-01-06T11:58:13.985Z,1968.00
2019-01-06T11:59:14.004Z,2016.00
2019-01-06T12:00:14.029Z,2124.00
2019-01-06T12:01:14.036Z,2312.00
2019-01-06T12:02:14.052Z,2408.00
2019-01-06T12:03:14.118Z,2260.00
2019-01-06T12:04:14.098Z,2280.00
2019-01-06T12:05:14.107Z,2544.00
2019-01-06T12:06:14.123Z,2696.00
2019-01-06T12:07:14.145Z,2720.00
2019-01-06T12:08:14.190Z,2600.00
2019-01-06T12:09:14.190Z,2596.00
2019-01-06T12:10:14.196Z,2732.00
2019-01-06T12:11:14.243Z,2784.00
2019-01-06T12:12:14.244Z,2928.00
2019-01-06T12:13:14.258Z,2796.00
2019-01-06T12:14:14.287Z,2720.00
2019-01-06T12:15:14.297Z,2700.00
2019-01-06T12:16:14.311Z,2612.00
2019-01-06T12:17:14.323Z,2604.00
2019-01-06T12:18:14.347Z,2884.00
2019-01-06T12:19:14.402Z,3328.00
2019-01-06T12:20:14.380Z,3624.00
2019-01-06T12:21:14.397Z,3472.00
2019-01-06T12:22:14.416Z,3164.00
2019-01-06T12:23:14.431Z,3076.00
2019-01-06T12:24:14.483Z,2844.00
2019-01-06T12:25:14.473Z,2400.00
2019-01-06T12:26:14.506Z,2044.00
2019-01-06T12:27:14.513Z,2000.00
2019-01-06T12:28:14.521Z,2160.00
2019-01-06T12:29:14.541Z,2392.00
2019-01-06T12:30:14.562Z,2568.00
2019-01-06T12:31:14.580Z,2668.00
2019-01-06T12:32:14.598Z,2708.00
2019-01-06T12:33:14.625Z,2784.00
2019-01-06T12:34:14.692Z,3140.00
2019-01-06T12:35:14.656Z,3616.00
2019-01-06T12:36:14.679Z,3932.00
2019-01-06T12:37:14.717Z,4036.00
2019-01-06T12:38:14.704Z,4108.00
2019-01-06T12:39:14.722Z,4124.00
2019-01-06T12:40:14.802Z,3796.00
2019-01-06T12:41:14.758Z,3360.00
2019-01-06T12:42:14.776Z,3216.00
2019-01-06T12:43:14.801Z,3584.00
2019-01-06T12:44:14.820Z,3888.00
2019-01-06T12:45:14.839Z,3984.00
2019-01-06T12:46:14.850Z,3948.00
2019-01-06T12:47:14.868Z,3848.00